Orbital elements of GLOBALSTAR M096
| Launched | 5 February 2013 |
| Flight ended | – |
| Launch site | Tyuratam Missile and Space Center, Kazakhstan (Also known as Baikonur Cosmodrome) |
| Owner | Globalstar |
| NORAD ID | 39075 |
| Date fetched |
Epoch osculation |
Inc. [°] |
Ecc. | RA asc node [hr] |
Arg Peri. [°] |
Mean anom [°] |
Mean motion [rev/day] |
Abs. mag |
| Date fetched |
Epoch osculation |
Inc. [°] |
Ecc. | RA asc node [hr] |
Arg Peri. [°] |
Mean anom [°] |
Mean motion [rev/day] |
Abs. mag |
| 2026 May 01 17:56 | 2026 May 01 08:26:19 | 52.0093 | 0.00007 | 22.8110 | 99.5378 | 260.5565 | 12.62265 | 7.500 |
| 2026 Apr 30 17:56 | 2026 Apr 30 13:26:04 | 52.0096 | 0.00007 | 22.9716 | 98.4478 | 260.5565 | 12.62265 | 7.500 |
| 2026 Apr 29 17:57 | 2026 Apr 29 08:55:41 | 52.0095 | 0.00007 | 23.2127 | 97.0505 | 260.5565 | 12.62265 | 7.500 |
| 2026 Apr 28 17:56 | 2026 Apr 28 00:37:15 | 52.0096 | 0.00007 | 23.4858 | 95.7314 | 260.5565 | 12.62265 | 7.500 |
| 2026 Apr 27 17:58 | 2026 Apr 27 09:25:03 | 52.0098 | 0.00007 | 23.6144 | 95.2509 | 260.5565 | 12.62265 | 7.500 |
| 2026 Apr 26 17:58 | 2026 Apr 26 08:42:44 | 52.0099 | 0.00006 | 23.8232 | 94.3839 | 260.5565 | 12.62265 | 7.500 |
| 2026 Apr 25 17:58 | 2026 Apr 25 09:54:25 | 52.0099 | 0.00006 | 0.0161 | 93.3006 | 260.5565 | 12.62265 | 7.500 |
| 2026 Apr 24 17:59 | 2026 Apr 24 03:30:01 | 52.0099 | 0.00006 | 0.2731 | 92.6048 | 260.5565 | 12.62265 | 7.500 |
| 2026 Apr 23 17:57 | 2026 Apr 23 02:47:41 | 52.0100 | 0.00006 | 0.4820 | 92.0778 | 260.5565 | 12.62265 | 7.500 |
| 2026 Apr 22 17:57 | 2026 Apr 22 03:59:23 | 52.0100 | 0.00006 | 0.6748 | 91.6528 | 260.5565 | 12.62265 | 7.500 |
| 2026 Apr 21 17:57 | 2026 Apr 21 10:53:09 | 52.0099 | 0.00006 | 0.8194 | 91.2852 | 260.5565 | 12.62265 | 7.500 |
| 2026 Apr 20 17:57 | 2026 Apr 20 10:10:50 | 52.0099 | 0.00006 | 1.0283 | 90.9798 | 260.5565 | 12.62265 | 7.500 |
| 2026 Apr 19 17:58 | 2026 Apr 19 11:22:31 | 52.0098 | 0.00006 | 1.2211 | 90.6302 | 260.5565 | 12.62265 | 7.500 |
| 2026 Apr 18 17:56 | 2026 Apr 18 03:04:05 | 52.0098 | 0.00006 | 1.4943 | 90.4285 | 260.5565 | 12.62265 | 7.500 |
| 2026 Apr 16 17:57 | 2026 Apr 16 03:33:27 | 52.0095 | 0.00005 | 1.8960 | 90.2498 | 260.5565 | 12.62265 | 7.500 |
| 2026 Apr 14 17:57 | 2026 Apr 14 05:56:51 | 52.0094 | 0.00005 | 2.2816 | 90.5944 | 260.5565 | 12.62265 | 7.500 |
| 2026 Apr 13 17:57 | 2026 Apr 13 05:14:31 | 52.0093 | 0.00005 | 2.4905 | 91.0393 | 260.5565 | 12.62265 | 7.500 |
| 2026 Apr 12 17:57 | 2026 Apr 12 04:32:11 | 52.0094 | 0.00005 | 2.6994 | 91.4781 | 260.5565 | 12.62265 | 7.500 |
| 2026 Apr 11 17:57 | 2026 Apr 11 03:49:52 | 52.0090 | 0.00005 | 2.9082 | 92.0839 | 260.5565 | 12.62265 | 7.500 |
| 2026 Apr 10 17:58 | 2026 Apr 10 05:01:33 | 52.0089 | 0.00005 | 3.1011 | 92.3762 | 260.5565 | 12.62265 | 7.500 |
| 2026 Apr 09 18:01 | 2026 Apr 09 04:19:14 | 52.0085 | 0.00005 | 3.3100 | 93.2943 | 260.5565 | 12.62265 | 7.500 |
| 2026 Apr 08 17:57 | 2026 Apr 08 05:30:55 | 52.0084 | 0.00005 | 3.5028 | 94.2187 | 260.5565 | 12.62265 | 7.500 |
| 2026 Apr 07 17:57 | 2026 Apr 07 04:48:36 | 52.0081 | 0.00005 | 3.7117 | 95.2772 | 260.5565 | 12.62265 | 7.500 |
| 2026 Apr 06 17:57 | 2026 Apr 06 06:00:17 | 52.0080 | 0.00004 | 3.9045 | 96.1870 | 260.5565 | 12.62265 | 7.500 |
| 2026 Apr 05 17:56 | 2026 Apr 05 07:11:59 | 52.0077 | 0.00004 | 4.0973 | 97.6682 | 260.5565 | 12.62265 | 7.500 |
| 2026 Apr 04 17:57 | 2026 Apr 04 06:29:39 | 52.0077 | 0.00004 | 4.3062 | 99.1952 | 260.5565 | 12.62265 | 7.500 |